createdAt,value
2022-11-18T00:00:54.756Z,8.40
2022-11-18T00:03:22.084Z,9.17
2022-11-18T00:05:56.907Z,12.00
2022-11-18T00:08:25.116Z,15.50
2022-11-18T00:10:52.246Z,16.87
2022-11-18T00:13:38.417Z,18.40
2022-11-18T00:16:11.254Z,17.60
2022-11-18T00:18:39.004Z,13.83
2022-11-18T00:21:11.527Z,13.10
2022-11-18T00:23:39.659Z,13.50
2022-11-18T00:26:12.642Z,12.57
2022-11-18T00:28:39.884Z,13.30
2022-11-18T00:31:12.055Z,13.30
2022-11-18T00:33:39.489Z,17.03
2022-11-18T00:36:09.267Z,17.10
2022-11-18T00:38:36.303Z,14.80
2022-11-18T00:41:11.927Z,14.57
2022-11-18T00:43:39.518Z,12.67
2022-11-18T00:46:09.815Z,13.07
2022-11-18T00:48:37.394Z,13.27
2022-11-18T00:51:16.685Z,13.17
2022-11-18T00:53:49.635Z,13.00
2022-11-18T00:56:16.755Z,12.70
2022-11-18T00:58:46.041Z,12.10
2022-11-18T01:01:13.033Z,9.83
2022-11-18T01:03:40.014Z,8.50
2022-11-18T01:06:06.999Z,8.70
2022-11-18T01:08:34.225Z,8.87
2022-11-18T01:11:21.099Z,8.43
2022-11-18T01:13:52.557Z,9.57
2022-11-18T01:16:21.183Z,8.40
2022-11-18T01:18:48.495Z,7.67
2022-11-18T01:21:16.014Z,8.10
2022-11-18T01:23:45.567Z,8.13
2022-11-18T01:26:16.974Z,8.30
2022-11-18T01:28:44.849Z,9.17
2022-11-18T01:31:18.631Z,10.20
2022-11-18T01:33:46.905Z,9.77
2022-11-18T01:36:19.201Z,11.37
2022-11-18T01:38:46.358Z,10.20
2022-11-18T01:41:14.256Z,10.60
2022-11-18T01:43:57.512Z,11.27
2022-11-18T01:46:26.774Z,11.83
2022-11-18T01:49:11.531Z,10.93
2022-11-18T01:51:46.926Z,11.97
2022-11-18T01:54:22.835Z,10.80
2022-11-18T01:56:54.033Z,10.80
2022-11-18T01:59:27.496Z,12.40
2022-11-18T02:01:59.858Z,9.53
2022-11-18T02:04:28.020Z,11.50
2022-11-18T02:06:57.097Z,11.47
2022-11-18T02:09:24.033Z,9.97
2022-11-18T02:11:51.454Z,10.53
2022-11-18T02:14:25.984Z,9.67
2022-11-18T02:17:32.983Z,9.87
2022-11-18T02:20:37.824Z,9.67
2022-11-18T02:23:41.638Z,9.50
2022-11-18T02:27:02.664Z,9.70
2022-11-18T02:29:39.820Z,9.90
2022-11-18T02:32:22.740Z,10.80
2022-11-18T02:35:16.185Z,10.73
2022-11-18T02:37:58.858Z,11.27
2022-11-18T02:40:36.973Z,10.00
2022-11-18T02:43:09.968Z,10.53
2022-11-18T02:45:43.278Z,17.20
2022-11-18T02:48:11.704Z,14.77
2022-11-18T02:50:41.598Z,12.93
2022-11-18T02:53:15.820Z,13.23
2022-11-18T02:55:44.489Z,9.60
2022-11-18T02:58:12.665Z,9.73
2022-11-18T03:00:47.917Z,8.47
2022-11-18T03:03:32.055Z,8.50
2022-11-18T03:06:41.694Z,6.90
2022-11-18T03:09:36.886Z,7.70
2022-11-18T03:12:46.860Z,6.63
2022-11-18T03:15:47.851Z,6.73
2022-11-18T03:18:33.990Z,6.57
2022-11-18T03:21:28.807Z,7.03
2022-11-18T03:24:03.969Z,7.70
2022-11-18T03:26:36.423Z,7.67
2022-11-18T03:29:32.935Z,6.37
2022-11-18T03:32:11.672Z,6.60
2022-11-18T03:34:44.123Z,6.10
2022-11-18T03:37:14.637Z,5.60
2022-11-18T03:39:46.524Z,6.57
2022-11-18T03:42:24.098Z,5.83
2022-11-18T03:44:55.975Z,5.83
2022-11-18T03:47:53.773Z,8.03
2022-11-18T03:50:26.084Z,6.33
2022-11-18T03:52:54.880Z,6.33
2022-11-18T03:55:26.685Z,6.37
2022-11-18T03:58:30.233Z,7.07
2022-11-18T04:01:04.570Z,6.03
2022-11-18T04:03:31.735Z,5.87
2022-11-18T04:06:15.058Z,6.20
2022-11-18T04:08:46.436Z,6.43
2022-11-18T04:11:42.148Z,6.50
2022-11-18T04:14:10.520Z,5.60
2022-11-18T04:16:42.630Z,7.80
2022-11-18T04:19:09.742Z,8.13
2022-11-18T04:21:36.951Z,7.20
2022-11-18T04:24:04.143Z,7.00
2022-11-18T04:26:31.682Z,6.40
2022-11-18T04:28:58.657Z,6.37
2022-11-18T04:31:25.648Z,5.80
2022-11-18T04:33:52.594Z,6.47
2022-11-18T04:36:20.102Z,6.67
2022-11-18T04:38:47.378Z,6.47
2022-11-18T04:41:14.445Z,6.43
2022-11-18T04:43:42.469Z,5.77
2022-11-18T04:46:09.423Z,5.40
2022-11-18T04:48:36.510Z,6.07
2022-11-18T04:51:05.264Z,4.87
2022-11-18T04:53:32.759Z,5.47
2022-11-18T04:56:17.994Z,5.00
2022-11-18T04:58:44.974Z,5.57
2022-11-18T05:01:11.914Z,5.43
2022-11-18T05:03:38.883Z,5.90
2022-11-18T05:06:06.424Z,5.70
2022-11-18T05:08:33.424Z,6.13
2022-11-18T05:11:20.296Z,5.27
2022-11-18T05:13:47.284Z,6.10
2022-11-18T05:16:14.439Z,6.00
2022-11-18T05:18:41.546Z,6.93
2022-11-18T05:21:08.479Z,5.90
2022-11-18T05:23:35.453Z,6.13
2022-11-18T05:26:10.197Z,7.00
2022-11-18T05:28:37.930Z,6.80
2022-11-18T05:31:09.671Z,7.07
2022-11-18T05:33:36.981Z,7.03
2022-11-18T05:36:09.558Z,7.80
2022-11-18T05:38:37.161Z,8.50
2022-11-18T05:41:04.530Z,7.80
2022-11-18T05:43:33.347Z,8.23
2022-11-18T05:46:00.526Z,9.20
2022-11-18T05:48:27.941Z,8.47
2022-11-18T05:50:55.487Z,9.57
2022-11-18T05:53:24.911Z,8.33
2022-11-18T05:56:21.926Z,9.20
2022-11-18T05:58:49.183Z,9.80
2022-11-18T06:01:23.981Z,9.40
2022-11-18T06:03:51.513Z,9.33
2022-11-18T06:06:22.037Z,9.80
2022-11-18T06:09:02.685Z,9.70
2022-11-18T06:11:35.959Z,10.70
2022-11-18T06:14:12.563Z,11.03
2022-11-18T06:16:44.445Z,12.57
2022-11-18T06:19:11.533Z,12.30
2022-11-18T06:21:38.547Z,14.33
2022-11-18T06:24:07.303Z,15.90
2022-11-18T06:26:34.302Z,15.20
2022-11-18T06:29:01.491Z,16.73
2022-11-18T06:31:28.651Z,18.70
2022-11-18T06:33:55.583Z,17.40
2022-11-18T06:36:22.531Z,18.67
2022-11-18T06:38:49.674Z,16.57
2022-11-18T06:41:16.629Z,17.53
2022-11-18T06:43:43.696Z,14.00
2022-11-18T06:46:32.025Z,12.83
2022-11-18T06:48:59.579Z,11.53
2022-11-18T06:51:27.107Z,11.80
2022-11-18T06:53:54.679Z,11.80
2022-11-18T06:56:22.827Z,12.00
2022-11-18T06:58:57.877Z,10.97
2022-11-18T07:01:32.354Z,9.80
2022-11-18T07:04:00.718Z,10.33
2022-11-18T07:06:31.842Z,9.37
2022-11-18T07:09:00.910Z,10.73
2022-11-18T07:11:28.522Z,12.00
2022-11-18T07:13:55.992Z,12.20
2022-11-18T07:16:25.555Z,12.33
2022-11-18T07:18:55.388Z,12.00
2022-11-18T07:21:27.723Z,14.27
2022-11-18T07:23:56.338Z,13.63
2022-11-18T07:26:23.963Z,13.70
2022-11-18T07:28:51.322Z,15.10
2022-11-18T07:31:20.541Z,11.50
2022-11-18T07:33:50.544Z,14.40
2022-11-18T07:36:23.429Z,13.00
2022-11-18T07:38:52.559Z,13.97
2022-11-18T07:41:21.649Z,12.03
2022-11-18T07:43:50.499Z,10.67
2022-11-18T07:46:43.840Z,13.13
2022-11-18T07:49:12.463Z,13.90
2022-11-18T07:51:40.863Z,16.80
2022-11-18T07:54:15.567Z,19.13
2022-11-18T07:56:42.589Z,17.13
2022-11-18T07:59:09.639Z,17.90
2022-11-18T08:01:36.735Z,18.07
2022-11-18T08:04:09.206Z,12.97
2022-11-18T08:06:37.077Z,13.60
2022-11-18T08:09:05.756Z,12.43
2022-11-18T08:11:32.921Z,15.00
2022-11-18T08:14:00.492Z,17.80
2022-11-18T08:16:27.941Z,17.87
2022-11-18T08:18:55.342Z,18.70
2022-11-18T08:21:23.422Z,15.97
2022-11-18T08:23:52.108Z,12.23
2022-11-18T08:26:19.668Z,11.57
2022-11-18T08:28:47.195Z,9.57
2022-11-18T08:31:22.879Z,9.53
2022-11-18T08:33:50.032Z,9.23
2022-11-18T08:36:20.653Z,8.30
2022-11-18T08:38:47.773Z,8.20
2022-11-18T08:41:17.871Z,9.37
2022-11-18T08:43:45.068Z,8.50
2022-11-18T08:46:12.530Z,7.93
2022-11-18T08:48:39.521Z,8.37
2022-11-18T08:51:06.881Z,8.93
2022-11-18T08:53:33.900Z,8.20
2022-11-18T08:56:02.064Z,8.70
2022-11-18T08:58:29.258Z,8.73
2022-11-18T09:00:56.381Z,9.37
2022-11-18T09:03:23.923Z,8.17
2022-11-18T09:05:51.127Z,8.70
2022-11-18T09:08:18.352Z,8.33
2022-11-18T09:10:47.680Z,8.67
2022-11-18T09:16:03.062Z,8.30
2022-11-18T09:18:30.724Z,10.00
2022-11-18T09:20:59.259Z,8.20
2022-11-18T09:23:26.804Z,8.80
2022-11-18T09:26:05.758Z,10.07
2022-11-18T09:28:33.280Z,9.50
2022-11-18T09:31:30.669Z,8.57
2022-11-18T09:34:01.159Z,8.60
2022-11-18T09:36:28.935Z,8.90
2022-11-18T09:38:56.188Z,8.07
2022-11-18T09:41:50.128Z,8.33
2022-11-18T09:44:31.282Z,8.43
2022-11-18T09:47:23.085Z,8.83
2022-11-18T09:49:50.207Z,8.90
2022-11-18T09:52:36.149Z,9.20
2022-11-18T09:55:12.528Z,8.77
2022-11-18T09:57:40.448Z,8.07
2022-11-18T10:00:19.243Z,7.07
2022-11-18T10:03:07.995Z,7.10
2022-11-18T10:05:52.738Z,6.90
2022-11-18T10:08:50.103Z,6.67
2022-11-18T10:11:23.393Z,6.13
2022-11-18T10:14:28.904Z,6.60
2022-11-18T10:17:24.271Z,7.57
2022-11-18T10:20:20.413Z,7.27
2022-11-18T10:22:58.856Z,6.67
2022-11-18T10:25:26.333Z,7.00
2022-11-18T10:27:53.363Z,7.53
2022-11-18T10:30:23.094Z,7.50
2022-11-18T10:33:02.017Z,7.00
2022-11-18T10:35:39.843Z,7.13
2022-11-18T10:38:17.989Z,8.23
2022-11-18T10:41:05.629Z,6.90
2022-11-18T10:43:53.079Z,7.70
2022-11-18T10:46:32.214Z,7.40
2022-11-18T10:49:17.473Z,7.50
2022-11-18T10:51:46.967Z,7.20
2022-11-18T10:54:24.107Z,6.83
2022-11-18T10:57:08.278Z,6.07
2022-11-18T10:59:56.887Z,5.27
2022-11-18T11:02:33.827Z,5.73
2022-11-18T11:05:05.112Z,6.03
2022-11-18T11:07:37.010Z,5.57
2022-11-18T11:10:07.248Z,6.50
2022-11-18T11:12:47.209Z,6.73
2022-11-18T11:15:19.775Z,7.10
2022-11-18T11:18:13.892Z,6.20
2022-11-18T11:20:41.374Z,6.30
2022-11-18T11:23:15.678Z,7.60
2022-11-18T11:29:08.155Z,5.90
2022-11-18T11:32:00.887Z,7.40
2022-11-18T11:34:57.153Z,7.43
2022-11-18T11:38:00.908Z,7.60
2022-11-18T11:41:00.009Z,6.43
2022-11-18T11:43:46.810Z,7.80
2022-11-18T11:47:21.700Z,10.10
2022-11-18T11:50:08.929Z,7.50
2022-11-18T11:53:24.805Z,9.07
2022-11-18T11:59:32.742Z,9.50
2022-11-18T12:02:17.992Z,11.03
2022-11-18T12:05:16.970Z,12.73
2022-11-18T12:08:16.508Z,12.87
2022-11-18T12:10:43.471Z,12.37
2022-11-18T12:13:47.848Z,12.40
2022-11-18T12:16:41.024Z,13.57
2022-11-18T12:19:20.236Z,13.30
2022-11-18T12:22:00.615Z,14.10
2022-11-18T12:24:45.737Z,13.60
2022-11-18T12:27:14.643Z,13.63
2022-11-18T12:29:59.269Z,13.70
2022-11-18T12:32:42.566Z,13.37
2022-11-18T12:35:30.730Z,13.60
2022-11-18T12:37:59.823Z,17.97
2022-11-18T12:40:52.802Z,13.57
2022-11-18T12:43:46.975Z,12.50
2022-11-18T12:46:52.385Z,13.67
2022-11-18T12:49:42.360Z,13.37
2022-11-18T12:52:48.625Z,13.63
2022-11-18T12:55:20.978Z,13.60
2022-11-18T12:57:48.155Z,14.67
2022-11-18T13:00:53.579Z,15.20
2022-11-18T13:03:26.272Z,16.20
2022-11-18T13:06:02.401Z,16.30
2022-11-18T13:08:32.647Z,16.80
2022-11-18T13:11:43.749Z,16.00
2022-11-18T13:14:44.373Z,14.50
2022-11-18T13:17:55.248Z,13.70
2022-11-18T13:20:31.600Z,14.10
2022-11-18T13:23:20.427Z,17.00
2022-11-18T13:25:49.234Z,15.57
2022-11-18T13:28:29.230Z,12.97
2022-11-18T13:31:52.568Z,13.30
2022-11-18T13:34:22.950Z,12.27
2022-11-18T13:36:51.595Z,11.00
2022-11-18T13:39:26.407Z,10.50
2022-11-18T13:42:29.983Z,10.27
2022-11-18T13:45:04.090Z,9.50
2022-11-18T13:48:08.425Z,14.20
2022-11-18T13:50:41.649Z,15.57
2022-11-18T13:53:41.297Z,15.90
2022-11-18T13:56:17.741Z,17.00
2022-11-18T13:59:18.092Z,20.77
2022-11-18T14:01:45.717Z,21.30
2022-11-18T14:04:22.733Z,18.63
2022-11-18T14:06:50.657Z,18.90
2022-11-18T14:09:27.573Z,20.77
2022-11-18T14:12:29.284Z,19.67
2022-11-18T14:15:33.335Z,20.33
2022-11-18T14:18:02.337Z,19.43
2022-11-18T14:20:31.126Z,18.63
2022-11-18T14:23:01.780Z,19.07
2022-11-18T14:25:35.554Z,19.30
2022-11-18T14:28:30.871Z,20.60
2022-11-18T14:31:20.424Z,20.07
2022-11-18T14:34:24.752Z,17.87
2022-11-18T14:36:53.597Z,21.87
2022-11-18T14:39:32.047Z,19.00
2022-11-18T14:41:59.917Z,19.10
2022-11-18T14:44:28.199Z,16.67
2022-11-18T14:46:57.786Z,19.50
2022-11-18T14:49:26.284Z,19.30
2022-11-18T14:51:54.779Z,20.53
2022-11-18T14:54:26.755Z,18.00
2022-11-18T14:57:00.881Z,18.80
2022-11-18T14:59:27.928Z,19.63
2022-11-18T15:01:56.692Z,21.70
2022-11-18T15:04:25.393Z,20.50
2022-11-18T15:06:52.338Z,20.17
2022-11-18T15:09:21.729Z,18.20
2022-11-18T15:11:48.664Z,17.07
2022-11-18T15:14:16.080Z,18.07
2022-11-18T15:16:43.206Z,18.90
2022-11-18T15:19:15.379Z,19.80
2022-11-18T15:21:43.246Z,21.30
2022-11-18T15:24:10.331Z,22.70
2022-11-18T15:26:44.211Z,19.73
2022-11-18T15:29:23.458Z,21.10
2022-11-18T15:31:50.551Z,21.10
2022-11-18T15:34:20.637Z,21.20
2022-11-18T15:36:48.454Z,20.60
2022-11-18T15:39:15.821Z,22.10
2022-11-18T15:41:45.800Z,23.70
2022-11-18T15:44:13.108Z,25.07
2022-11-18T15:46:40.325Z,24.67
2022-11-18T15:49:09.710Z,24.20
2022-11-18T15:51:37.259Z,25.17
2022-11-18T15:54:05.516Z,24.33
2022-11-18T15:56:33.896Z,26.67
2022-11-18T15:59:11.733Z,24.60
2022-11-18T16:01:41.352Z,20.40
2022-11-18T16:04:10.314Z,24.27
2022-11-18T16:06:37.654Z,24.87
2022-11-18T16:09:06.415Z,25.27
2022-11-18T16:11:52.291Z,21.93
2022-11-18T16:14:21.323Z,24.77
2022-11-18T16:16:50.696Z,24.60
2022-11-18T16:19:19.877Z,21.23
2022-11-18T16:21:50.152Z,20.87
2022-11-18T16:24:23.263Z,20.70
2022-11-18T16:26:50.693Z,18.20
2022-11-18T16:29:18.810Z,18.30
2022-11-18T16:31:52.651Z,17.27
2022-11-18T16:34:27.066Z,19.20
2022-11-18T16:36:56.217Z,19.03
2022-11-18T16:39:26.132Z,19.47
2022-11-18T16:42:08.491Z,19.30
2022-11-18T16:44:36.717Z,18.30
2022-11-18T16:47:08.949Z,17.10
2022-11-18T16:49:39.632Z,17.63
2022-11-18T16:52:08.770Z,18.90
2022-11-18T16:54:41.027Z,20.83
2022-11-18T16:57:11.686Z,18.03
2022-11-18T16:59:38.624Z,18.07
2022-11-18T17:02:06.369Z,18.27
2022-11-18T17:04:36.338Z,17.03
2022-11-18T17:07:03.490Z,16.73
2022-11-18T17:09:30.917Z,15.13
2022-11-18T17:12:00.977Z,14.30
2022-11-18T17:14:30.036Z,13.97
2022-11-18T17:16:58.072Z,13.50
2022-11-18T17:19:28.864Z,13.80
2022-11-18T17:22:00.265Z,13.53
2022-11-18T17:24:27.419Z,16.63
2022-11-18T17:26:55.444Z,14.10
2022-11-18T17:29:22.614Z,13.67
2022-11-18T17:31:49.718Z,11.93
2022-11-18T17:34:17.537Z,11.90
2022-11-18T17:36:45.198Z,12.10
2022-11-18T17:39:13.336Z,13.37
2022-11-18T17:41:59.185Z,13.23
2022-11-18T17:44:29.328Z,12.10
2022-11-18T17:46:56.640Z,12.80
2022-11-18T17:49:24.281Z,14.40
2022-11-18T17:51:54.036Z,14.43
2022-11-18T17:54:22.795Z,14.30
2022-11-18T17:56:52.494Z,13.87
2022-11-18T17:59:20.214Z,12.90
2022-11-18T18:01:47.295Z,14.70
2022-11-18T18:04:15.449Z,14.50
2022-11-18T18:06:42.483Z,16.57
2022-11-18T18:09:09.406Z,17.33
2022-11-18T18:11:36.458Z,15.83
2022-11-18T18:14:13.593Z,17.20
2022-11-18T18:16:50.153Z,15.63
2022-11-18T18:19:20.032Z,13.80
2022-11-18T18:21:47.440Z,15.70
2022-11-18T18:24:23.617Z,14.43
2022-11-18T18:26:50.987Z,15.73
2022-11-18T18:29:18.225Z,15.90
2022-11-18T18:31:45.141Z,14.70
2022-11-18T18:34:16.417Z,15.10
2022-11-18T18:36:44.017Z,13.30
2022-11-18T18:39:11.161Z,14.50
2022-11-18T18:41:38.686Z,11.50
2022-11-18T18:44:06.800Z,11.40
2022-11-18T18:46:34.104Z,11.57
2022-11-18T18:49:12.773Z,11.87
2022-11-18T18:51:49.115Z,9.57
2022-11-18T18:54:18.735Z,10.30
2022-11-18T18:56:46.161Z,9.13
2022-11-18T18:59:13.303Z,10.10
2022-11-18T19:01:41.128Z,10.10
2022-11-18T19:04:13.247Z,9.60
2022-11-18T19:06:59.765Z,8.83
2022-11-18T19:09:27.407Z,8.07
2022-11-18T19:12:13.777Z,8.37
2022-11-18T19:14:41.176Z,8.70
2022-11-18T19:17:11.703Z,9.23
2022-11-18T19:19:59.314Z,8.27
2022-11-18T19:22:30.439Z,7.63
2022-11-18T19:25:01.665Z,6.97
2022-11-18T19:27:29.704Z,7.30
2022-11-18T19:29:56.880Z,6.87
2022-11-18T19:32:24.457Z,5.00
2022-11-18T19:34:51.466Z,5.10
2022-11-18T19:37:19.572Z,5.20
2022-11-18T19:39:46.492Z,5.83
2022-11-18T19:42:13.482Z,5.13
2022-11-18T19:44:40.484Z,5.30
2022-11-18T19:47:07.456Z,4.93
2022-11-18T19:49:34.627Z,3.80
2022-11-18T19:52:03.251Z,4.73
2022-11-18T19:54:32.551Z,4.67
2022-11-18T19:57:01.113Z,4.20
2022-11-18T19:59:29.794Z,3.60
2022-11-18T20:01:57.090Z,4.30
2022-11-18T20:04:24.073Z,4.00
2022-11-18T20:06:51.132Z,4.27
2022-11-18T20:09:18.566Z,4.70
2022-11-18T20:11:45.997Z,3.60
2022-11-18T20:14:13.304Z,4.00
2022-11-18T20:16:40.874Z,3.77
2022-11-18T20:19:10.954Z,3.93
2022-11-18T20:21:39.424Z,3.03
2022-11-18T20:24:07.657Z,3.10
2022-11-18T20:26:37.197Z,2.77
2022-11-18T20:29:05.575Z,3.93
2022-11-18T20:31:33.899Z,2.90
2022-11-18T20:34:01.980Z,3.03
2022-11-18T20:36:34.887Z,3.30
2022-11-18T20:39:16.100Z,3.27
2022-11-18T20:42:03.887Z,4.00
2022-11-18T20:44:30.773Z,3.73
2022-11-18T20:46:57.732Z,3.80
2022-11-18T20:49:24.972Z,3.53
2022-11-18T20:51:52.218Z,3.07
2022-11-18T20:54:19.328Z,3.00
2022-11-18T20:56:46.382Z,3.40
2022-11-18T20:59:13.846Z,2.83
2022-11-18T21:01:41.567Z,3.90
2022-11-18T21:04:11.755Z,3.00
2022-11-18T21:06:39.166Z,3.07
2022-11-18T21:09:06.453Z,2.73
2022-11-18T21:11:37.468Z,2.67
2022-11-18T21:14:25.612Z,2.80
2022-11-18T21:17:07.712Z,2.80
2022-11-18T21:19:34.787Z,2.83
2022-11-18T21:22:01.944Z,3.20
2022-11-18T21:24:31.853Z,3.27
2022-11-18T21:27:00.675Z,2.77
2022-11-18T21:29:30.640Z,3.00
2022-11-18T21:32:01.693Z,2.90
2022-11-18T21:34:29.956Z,2.47
2022-11-18T21:36:56.966Z,2.50
2022-11-18T21:39:24.801Z,3.10
2022-11-18T21:41:59.173Z,3.00
2022-11-18T21:44:28.362Z,4.63
2022-11-18T21:46:55.850Z,2.57
2022-11-18T21:49:23.206Z,2.50
2022-11-18T21:51:50.539Z,2.70
2022-11-18T21:54:18.681Z,2.90
2022-11-18T21:56:46.293Z,2.67
2022-11-18T21:59:13.270Z,3.20
2022-11-18T22:01:40.418Z,3.30
2022-11-18T22:04:07.615Z,3.40
2022-11-18T22:06:35.260Z,3.70
2022-11-18T22:09:04.571Z,4.10
2022-11-18T22:11:33.917Z,4.57
2022-11-18T22:14:01.022Z,3.93
2022-11-18T22:16:28.068Z,3.90
2022-11-18T22:19:00.392Z,4.50
2022-11-18T22:21:30.872Z,4.67
2022-11-18T22:23:59.808Z,5.17
2022-11-18T22:26:27.699Z,5.00
2022-11-18T22:28:56.921Z,5.40
2022-11-18T22:31:25.806Z,5.00
2022-11-18T22:33:53.837Z,6.30
2022-11-18T22:36:23.856Z,5.80
2022-11-18T22:38:51.508Z,5.30
2022-11-18T22:41:42.777Z,5.80
2022-11-18T22:44:10.875Z,6.10
2022-11-18T22:46:39.745Z,6.83
2022-11-18T22:49:08.135Z,5.67
2022-11-18T22:51:36.351Z,6.40
2022-11-18T22:54:36.663Z,5.70
2022-11-18T22:56:51.303Z,5.47
2022-11-18T22:59:18.735Z,6.47
2022-11-18T23:01:47.009Z,5.93
2022-11-18T23:04:14.067Z,6.13
2022-11-18T23:06:41.117Z,5.70
2022-11-18T23:09:09.394Z,6.23
2022-11-18T23:11:54.833Z,6.20
2022-11-18T23:14:21.720Z,7.70
2022-11-18T23:16:48.770Z,7.43
2022-11-18T23:19:22.284Z,7.83
2022-11-18T23:21:49.745Z,6.60
2022-11-18T23:24:18.958Z,6.87
2022-11-18T23:26:46.407Z,7.43
2022-11-18T23:29:14.280Z,7.80
2022-11-18T23:31:45.248Z,7.57
2022-11-18T23:34:14.200Z,8.50
2022-11-18T23:36:41.827Z,8.87
2022-11-18T23:39:09.136Z,9.00
2022-11-18T23:41:36.293Z,8.20
2022-11-18T23:44:03.575Z,9.63
2022-11-18T23:46:30.651Z,11.00
2022-11-18T23:48:57.861Z,9.83
2022-11-18T23:51:25.778Z,10.30
2022-11-18T23:53:55.774Z,11.00
2022-11-18T23:56:25.389Z,11.30
2022-11-18T23:58:54.262Z,13.27
